Airfield :
LOGIN :

Register | Disclaimer

   EN    FR    IT 

 










Legend :    VFR   Marginal VFR   IFR   Intensive IFR   Very Intensive IFR
Visi :
Ceiling :
>= 8 km
>= 3000ft
5 to 8 km
1000 to 3000 ft
1500m to 5 km
500 to 1000 ft
800 to 1500m
200 to 500 ft
< 800m
< 200 ft
Symbols :   Thunderstorms  Fog  Heavy snow  Heavy precipitations  Wind > 20 kt
SIGMETs :     Misc.  Thunderstorms  Icing  Turbulence  Mountain Waves  Volcanic Ashes







- Airport Elevation : 465 ft
- IATA code : LEJ


EDDP - Leipzig Halle

CURRENT METAR :
  • 190250Z 25015KT 9999 FEW040 BKN066 03/01 Q1010 NOSIG

EXPIRED METARs :
  • 190220Z 25016KT 9999 FEW040 BKN050 03/01 Q1010 NOSIG
  • 190150Z 24015KT 9999 BKN037 BKN050 03/02 Q1011 NOSIG
  • 190120Z 25016KT 9999 BKN040 BKN050 03/02 Q1011 NOSIG
  • 190050Z 24016KT 9999 SCT040 BKN050 03/02 Q1011 NOSIG
  • 190020Z 24013KT 9999 BKN046 03/02 Q1011 NOSIG

TAF TAF EDDP
Valid from the 19 at 00:00 until the 20 at 00:00 UTC


182300Z 1900/1924 24013KT 9999 BKN030
TEMPO 1900/1907 25015G25KT BKN014
BECMG 1907/1909 26020G30KT
PROB40
TEMPO 1909/1917 SHRA BKN015CB
BECMG 1916/1918 27015G25KT
No reported NOTAMs for that airfield.



MET'MAP, your aeronautical weather chart ! - Copyright ORBIFLY December 2007 - Disclaimer

ORBIFLY MET'MAP TEAM :

Programming & Development : Alexandra Zaïnal
Concept & Development : Baudouin d'Aumeries
Co-Development & Prog : Marc-Olivier Méhu
Technical & hardware support : Manuel Goepfert

Contact : metmap@orbifly.com




SOURCES & CREDITS :

   NOAA